sensor_id;sensor_type;location;lat;lon;timestamp;temperature;humidity
78325;DHT22;67584;51.400;6.692;2023-07-08T00:00:23;22.00;50.70
78325;DHT22;67584;51.400;6.692;2023-07-08T00:02:51;22.00;50.80
78325;DHT22;67584;51.400;6.692;2023-07-08T00:05:18;22.00;50.60
78325;DHT22;67584;51.400;6.692;2023-07-08T00:07:44;22.00;50.80
78325;DHT22;67584;51.400;6.692;2023-07-08T00:10:22;22.00;51.10
78325;DHT22;67584;51.400;6.692;2023-07-08T00:12:53;22.00;51.20
78325;DHT22;67584;51.400;6.692;2023-07-08T00:15:26;22.00;51.30
78325;DHT22;67584;51.400;6.692;2023-07-08T00:17:53;22.00;50.90
78325;DHT22;67584;51.400;6.692;2023-07-08T00:22:54;22.00;51.10
78325;DHT22;67584;51.400;6.692;2023-07-08T00:25:20;21.90;51.10
78325;DHT22;67584;51.400;6.692;2023-07-08T00:27:47;22.00;51.20
78325;DHT22;67584;51.400;6.692;2023-07-08T00:30:20;21.90;51.90
78325;DHT22;67584;51.400;6.692;2023-07-08T00:32:46;21.90;51.40
78325;DHT22;67584;51.400;6.692;2023-07-08T00:35:11;21.90;51.40
78325;DHT22;67584;51.400;6.692;2023-07-08T00:37:37;21.90;51.40
78325;DHT22;67584;51.400;6.692;2023-07-08T00:40:21;22.00;52.10
78325;DHT22;67584;51.400;6.692;2023-07-08T00:42:47;21.90;51.40
78325;DHT22;67584;51.400;6.692;2023-07-08T00:45:38;21.90;51.80
78325;DHT22;67584;51.400;6.692;2023-07-08T00:48:29;22.00;52.30
78325;DHT22;67584;51.400;6.692;2023-07-08T00:50:55;21.90;51.50
78325;DHT22;67584;51.400;6.692;2023-07-08T00:53:32;21.90;52.10
78325;DHT22;67584;51.400;6.692;2023-07-08T00:56:22;21.90;51.80
78325;DHT22;67584;51.400;6.692;2023-07-08T00:59:00;21.90;51.40
78325;DHT22;67584;51.400;6.692;2023-07-08T01:01:26;21.90;51.30
78325;DHT22;67584;51.400;6.692;2023-07-08T01:03:57;21.90;51.30
78325;DHT22;67584;51.400;6.692;2023-07-08T01:06:27;21.80;51.40
78325;DHT22;67584;51.400;6.692;2023-07-08T01:08:57;21.90;51.50
78325;DHT22;67584;51.400;6.692;2023-07-08T01:11:24;21.80;51.50
78325;DHT22;67584;51.400;6.692;2023-07-08T01:13:50;21.80;51.70
78325;DHT22;67584;51.400;6.692;2023-07-08T01:16:17;21.80;51.90
78325;DHT22;67584;51.400;6.692;2023-07-08T01:18:43;21.70;52.00
78325;DHT22;67584;51.400;6.692;2023-07-08T01:21:35;21.70;52.80
78325;DHT22;67584;51.400;6.692;2023-07-08T01:24:03;21.70;52.60
78325;DHT22;67584;51.400;6.692;2023-07-08T01:26:31;21.60;52.90
78325;DHT22;67584;51.400;6.692;2023-07-08T01:28:59;21.60;52.90
78325;DHT22;67584;51.400;6.692;2023-07-08T01:31:25;21.60;52.80
78325;DHT22;67584;51.400;6.692;2023-07-08T01:33:54;21.60;53.10
78325;DHT22;67584;51.400;6.692;2023-07-08T01:36:20;21.50;52.80
78325;DHT22;67584;51.400;6.692;2023-07-08T01:38:47;21.60;52.90
78325;DHT22;67584;51.400;6.692;2023-07-08T01:41:15;21.50;53.00
78325;DHT22;67584;51.400;6.692;2023-07-08T01:43:41;21.40;53.00
78325;DHT22;67584;51.400;6.692;2023-07-08T01:46:15;21.40;53.70
78325;DHT22;67584;51.400;6.692;2023-07-08T01:48:47;21.40;53.60
78325;DHT22;67584;51.400;6.692;2023-07-08T01:51:13;21.30;53.40
78325;DHT22;67584;51.400;6.692;2023-07-08T01:53:41;21.40;53.20
78325;DHT22;67584;51.400;6.692;2023-07-08T01:56:08;21.40;53.10
78325;DHT22;67584;51.400;6.692;2023-07-08T01:58:34;21.40;53.30
78325;DHT22;67584;51.400;6.692;2023-07-08T02:01:01;21.40;53.50
78325;DHT22;67584;51.400;6.692;2023-07-08T02:03:27;21.40;53.40
78325;DHT22;67584;51.400;6.692;2023-07-08T02:05:54;21.40;53.80
78325;DHT22;67584;51.400;6.692;2023-07-08T02:08:20;21.30;54.20
78325;DHT22;67584;51.400;6.692;2023-07-08T02:10:52;21.30;54.90
78325;DHT22;67584;51.400;6.692;2023-07-08T02:13:19;21.20;54.70
78325;DHT22;67584;51.400;6.692;2023-07-08T02:15:47;21.20;55.00
78325;DHT22;67584;51.400;6.692;2023-07-08T02:18:13;21.00;55.20
78325;DHT22;67584;51.400;6.692;2023-07-08T02:20:42;21.00;55.40
78325;DHT22;67584;51.400;6.692;2023-07-08T02:23:08;21.00;55.70
78325;DHT22;67584;51.400;6.692;2023-07-08T02:25:34;21.00;55.80
78325;DHT22;67584;51.400;6.692;2023-07-08T02:27:59;20.90;56.10
78325;DHT22;67584;51.400;6.692;2023-07-08T02:30:26;20.90;56.70
78325;DHT22;67584;51.400;6.692;2023-07-08T02:32:52;20.90;57.00
78325;DHT22;67584;51.400;6.692;2023-07-08T02:35:29;20.90;57.50
78325;DHT22;67584;51.400;6.692;2023-07-08T02:37:55;20.90;57.40
78325;DHT22;67584;51.400;6.692;2023-07-08T02:40:22;20.90;57.60
78325;DHT22;67584;51.400;6.692;2023-07-08T02:42:48;20.80;57.70
78325;DHT22;67584;51.400;6.692;2023-07-08T02:45:15;20.80;57.20
78325;DHT22;67584;51.400;6.692;2023-07-08T02:47:41;20.70;57.00
78325;DHT22;67584;51.400;6.692;2023-07-08T02:50:09;20.80;57.00
78325;DHT22;67584;51.400;6.692;2023-07-08T02:52:35;20.80;56.50
78325;DHT22;67584;51.400;6.692;2023-07-08T02:55:01;20.80;56.50
78325;DHT22;67584;51.400;6.692;2023-07-08T02:57:26;20.80;56.30
78325;DHT22;67584;51.400;6.692;2023-07-08T02:59:52;20.80;56.60
78325;DHT22;67584;51.400;6.692;2023-07-08T03:02:18;20.90;56.30
78325;DHT22;67584;51.400;6.692;2023-07-08T03:04:43;20.80;56.60
78325;DHT22;67584;51.400;6.692;2023-07-08T03:07:10;20.80;56.60
78325;DHT22;67584;51.400;6.692;2023-07-08T03:09:40;20.80;57.00
78325;DHT22;67584;51.400;6.692;2023-07-08T03:12:08;20.80;57.00
78325;DHT22;67584;51.400;6.692;2023-07-08T03:14:35;20.70;56.90
78325;DHT22;67584;51.400;6.692;2023-07-08T03:17:02;20.60;57.10
78325;DHT22;67584;51.400;6.692;2023-07-08T03:19:28;20.60;56.90
78325;DHT22;67584;51.400;6.692;2023-07-08T03:21:54;20.60;57.20
78325;DHT22;67584;51.400;6.692;2023-07-08T03:24:19;20.60;57.20
78325;DHT22;67584;51.400;6.692;2023-07-08T03:26:46;20.60;57.00
78325;DHT22;67584;51.400;6.692;2023-07-08T03:29:17;20.60;57.10
78325;DHT22;67584;51.400;6.692;2023-07-08T03:31:45;20.60;57.00
78325;DHT22;67584;51.400;6.692;2023-07-08T03:34:12;20.60;57.10
78325;DHT22;67584;51.400;6.692;2023-07-08T03:36:49;20.60;57.40
78325;DHT22;67584;51.400;6.692;2023-07-08T03:39:23;20.50;58.00
78325;DHT22;67584;51.400;6.692;2023-07-08T03:41:50;20.50;57.20
78325;DHT22;67584;51.400;6.692;2023-07-08T03:44:17;20.70;57.20
78325;DHT22;67584;51.400;6.692;2023-07-08T03:46:47;20.50;57.10
78325;DHT22;67584;51.400;6.692;2023-07-08T03:49:20;20.60;57.40
78325;DHT22;67584;51.400;6.692;2023-07-08T03:51:49;20.50;57.60
78325;DHT22;67584;51.400;6.692;2023-07-08T03:54:18;20.50;57.80
78325;DHT22;67584;51.400;6.692;2023-07-08T03:56:44;20.40;57.60
78325;DHT22;67584;51.400;6.692;2023-07-08T03:59:11;20.40;57.90
78325;DHT22;67584;51.400;6.692;2023-07-08T04:01:37;20.40;57.70
78325;DHT22;67584;51.400;6.692;2023-07-08T04:04:09;20.50;57.90
78325;DHT22;67584;51.400;6.692;2023-07-08T04:06:37;20.40;57.80
78325;DHT22;67584;51.400;6.692;2023-07-08T04:09:02;20.40;58.10
78325;DHT22;67584;51.400;6.692;2023-07-08T04:11:28;20.30;58.30
78325;DHT22;67584;51.400;6.692;2023-07-08T04:13:54;20.30;58.30
78325;DHT22;67584;51.400;6.692;2023-07-08T04:16:29;20.30;59.50
78325;DHT22;67584;51.400;6.692;2023-07-08T04:18:56;20.20;59.10
78325;DHT22;67584;51.400;6.692;2023-07-08T04:21:23;20.20;59.60
78325;DHT22;67584;51.400;6.692;2023-07-08T04:23:50;20.20;59.70
78325;DHT22;67584;51.400;6.692;2023-07-08T04:26:17;20.30;59.70
78325;DHT22;67584;51.400;6.692;2023-07-08T04:28:44;20.30;59.90
78325;DHT22;67584;51.400;6.692;2023-07-08T04:31:10;20.40;59.90
78325;DHT22;67584;51.400;6.692;2023-07-08T04:33:35;20.40;59.90
78325;DHT22;67584;51.400;6.692;2023-07-08T04:36:01;20.50;59.70
78325;DHT22;67584;51.400;6.692;2023-07-08T04:38:27;20.70;59.70
78325;DHT22;67584;51.400;6.692;2023-07-08T04:40:54;20.70;59.40
78325;DHT22;67584;51.400;6.692;2023-07-08T04:43:21;20.80;59.30
78325;DHT22;67584;51.400;6.692;2023-07-08T04:45:51;20.80;59.20
78325;DHT22;67584;51.400;6.692;2023-07-08T04:48:18;20.80;59.20
78325;DHT22;67584;51.400;6.692;2023-07-08T04:50:48;20.90;59.20
78325;DHT22;67584;51.400;6.692;2023-07-08T04:53:14;20.90;59.10
78325;DHT22;67584;51.400;6.692;2023-07-08T04:56:00;20.90;61.00
78325;DHT22;67584;51.400;6.692;2023-07-08T04:58:26;20.90;59.90
78325;DHT22;67584;51.400;6.692;2023-07-08T05:00:51;20.80;59.70
78325;DHT22;67584;51.400;6.692;2023-07-08T05:03:17;20.70;59.90
78325;DHT22;67584;51.400;6.692;2023-07-08T05:05:43;20.60;60.20
78325;DHT22;67584;51.400;6.692;2023-07-08T05:08:08;20.70;59.80
78325;DHT22;67584;51.400;6.692;2023-07-08T05:10:34;20.60;60.00
78325;DHT22;67584;51.400;6.692;2023-07-08T05:13:00;20.60;60.00
78325;DHT22;67584;51.400;6.692;2023-07-08T05:15:26;20.70;59.90
78325;DHT22;67584;51.400;6.692;2023-07-08T05:17:52;20.80;59.90
78325;DHT22;67584;51.400;6.692;2023-07-08T05:20:18;20.80;59.60
78325;DHT22;67584;51.400;6.692;2023-07-08T05:22:44;20.80;59.40
78325;DHT22;67584;51.400;6.692;2023-07-08T05:25:11;21.00;59.30
78325;DHT22;67584;51.400;6.692;2023-07-08T05:27:36;21.10;59.10
78325;DHT22;67584;51.400;6.692;2023-07-08T05:30:04;21.20;58.60
78325;DHT22;67584;51.400;6.692;2023-07-08T05:32:30;21.40;58.30
78325;DHT22;67584;51.400;6.692;2023-07-08T05:34:56;21.30;57.90
78325;DHT22;67584;51.400;6.692;2023-07-08T05:37:22;21.40;58.00
78325;DHT22;67584;51.400;6.692;2023-07-08T05:39:54;21.50;57.80
78325;DHT22;67584;51.400;6.692;2023-07-08T05:42:20;21.50;57.60
78325;DHT22;67584;51.400;6.692;2023-07-08T05:44:46;21.70;57.30
78325;DHT22;67584;51.400;6.692;2023-07-08T05:47:13;21.80;57.10
78325;DHT22;67584;51.400;6.692;2023-07-08T05:49:38;21.90;56.60
78325;DHT22;67584;51.400;6.692;2023-07-08T05:52:04;22.10;56.60
78325;DHT22;67584;51.400;6.692;2023-07-08T05:54:37;22.10;56.10
78325;DHT22;67584;51.400;6.692;2023-07-08T05:57:03;22.40;55.70
78325;DHT22;67584;51.400;6.692;2023-07-08T05:59:29;22.60;55.10
78325;DHT22;67584;51.400;6.692;2023-07-08T06:01:55;22.90;54.70
78325;DHT22;67584;51.400;6.692;2023-07-08T06:04:21;22.90;54.40
78325;DHT22;67584;51.400;6.692;2023-07-08T06:06:47;23.10;54.10
78325;DHT22;67584;51.400;6.692;2023-07-08T06:09:13;23.10;53.70
78325;DHT22;67584;51.400;6.692;2023-07-08T06:11:39;23.20;53.50
78325;DHT22;67584;51.400;6.692;2023-07-08T06:14:04;23.30;53.00
78325;DHT22;67584;51.400;6.692;2023-07-08T06:16:30;23.50;52.80
78325;DHT22;67584;51.400;6.692;2023-07-08T06:18:57;23.70;52.60
78325;DHT22;67584;51.400;6.692;2023-07-08T06:21:23;23.70;52.00
78325;DHT22;67584;51.400;6.692;2023-07-08T06:23:49;24.00;51.30
78325;DHT22;67584;51.400;6.692;2023-07-08T06:26:15;24.30;50.40
78325;DHT22;67584;51.400;6.692;2023-07-08T06:28:40;24.70;49.40
78325;DHT22;67584;51.400;6.692;2023-07-08T06:31:06;24.90;48.60
78325;DHT22;67584;51.400;6.692;2023-07-08T06:33:31;25.20;47.90
78325;DHT22;67584;51.400;6.692;2023-07-08T06:35:57;25.60;47.50
78325;DHT22;67584;51.400;6.692;2023-07-08T06:38:23;25.80;47.10
78325;DHT22;67584;51.400;6.692;2023-07-08T06:40:48;26.00;47.00
78325;DHT22;67584;51.400;6.692;2023-07-08T06:43:14;26.20;46.80
78325;DHT22;67584;51.400;6.692;2023-07-08T06:45:49;26.30;46.30
78325;DHT22;67584;51.400;6.692;2023-07-08T06:48:15;26.40;45.90
78325;DHT22;67584;51.400;6.692;2023-07-08T06:50:47;26.50;45.70
78325;DHT22;67584;51.400;6.692;2023-07-08T06:53:13;26.50;45.80
78325;DHT22;67584;51.400;6.692;2023-07-08T06:55:39;26.50;45.90
78325;DHT22;67584;51.400;6.692;2023-07-08T06:58:05;26.50;45.70
78325;DHT22;67584;51.400;6.692;2023-07-08T07:00:30;26.30;45.20
78325;DHT22;67584;51.400;6.692;2023-07-08T07:02:56;26.40;44.20
78325;DHT22;67584;51.400;6.692;2023-07-08T07:05:22;26.70;43.60
78325;DHT22;67584;51.400;6.692;2023-07-08T07:07:47;26.90;43.30
78325;DHT22;67584;51.400;6.692;2023-07-08T07:10:13;27.00;42.50
78325;DHT22;67584;51.400;6.692;2023-07-08T07:12:38;27.30;41.70
78325;DHT22;67584;51.400;6.692;2023-07-08T07:15:05;27.30;41.50
78325;DHT22;67584;51.400;6.692;2023-07-08T07:17:31;27.40;41.20
78325;DHT22;67584;51.400;6.692;2023-07-08T07:19:57;27.50;41.40
78325;DHT22;67584;51.400;6.692;2023-07-08T07:22:23;27.60;40.80
78325;DHT22;67584;51.400;6.692;2023-07-08T07:24:48;27.60;40.30
78325;DHT22;67584;51.400;6.692;2023-07-08T07:27:14;27.80;39.50
78325;DHT22;67584;51.400;6.692;2023-07-08T07:29:45;28.10;38.60
78325;DHT22;67584;51.400;6.692;2023-07-08T07:32:11;28.10;39.30
78325;DHT22;67584;51.400;6.692;2023-07-08T07:34:38;28.20;39.20
78325;DHT22;67584;51.400;6.692;2023-07-08T07:37:05;28.30;38.60
78325;DHT22;67584;51.400;6.692;2023-07-08T07:39:31;28.60;38.30
78325;DHT22;67584;51.400;6.692;2023-07-08T07:41:56;28.60;38.00
78325;DHT22;67584;51.400;6.692;2023-07-08T07:44:22;28.70;38.00
78325;DHT22;67584;51.400;6.692;2023-07-08T07:46:48;29.00;37.30
78325;DHT22;67584;51.400;6.692;2023-07-08T07:49:14;29.10;37.20
78325;DHT22;67584;51.400;6.692;2023-07-08T07:51:39;29.30;35.40
78325;DHT22;67584;51.400;6.692;2023-07-08T07:54:05;29.50;35.90
78325;DHT22;67584;51.400;6.692;2023-07-08T07:56:30;29.70;34.70
78325;DHT22;67584;51.400;6.692;2023-07-08T07:58:57;29.80;34.30
78325;DHT22;67584;51.400;6.692;2023-07-08T08:01:23;29.90;34.10
78325;DHT22;67584;51.400;6.692;2023-07-08T08:03:48;30.00;33.90
78325;DHT22;67584;51.400;6.692;2023-07-08T08:06:16;30.10;33.70
78325;DHT22;67584;51.400;6.692;2023-07-08T08:08:45;30.20;33.20
78325;DHT22;67584;51.400;6.692;2023-07-08T08:11:12;30.10;33.40
78325;DHT22;67584;51.400;6.692;2023-07-08T08:13:37;30.50;33.50
78325;DHT22;67584;51.400;6.692;2023-07-08T08:16:03;30.60;33.40
78325;DHT22;67584;51.400;6.692;2023-07-08T08:18:29;30.60;32.80
78325;DHT22;67584;51.400;6.692;2023-07-08T08:20:55;30.80;32.60
78325;DHT22;67584;51.400;6.692;2023-07-08T08:23:21;30.90;32.40
78325;DHT22;67584;51.400;6.692;2023-07-08T08:25:47;30.80;32.70
78325;DHT22;67584;51.400;6.692;2023-07-08T08:28:12;31.20;32.10
78325;DHT22;67584;51.400;6.692;2023-07-08T08:30:38;31.30;31.60
78325;DHT22;67584;51.400;6.692;2023-07-08T08:33:04;31.40;31.80
78325;DHT22;67584;51.400;6.692;2023-07-08T08:35:29;31.40;31.10
78325;DHT22;67584;51.400;6.692;2023-07-08T08:37:55;31.50;31.20
78325;DHT22;67584;51.400;6.692;2023-07-08T08:40:21;31.70;31.00
78325;DHT22;67584;51.400;6.692;2023-07-08T08:42:59;31.70;30.30
78325;DHT22;67584;51.400;6.692;2023-07-08T08:45:27;31.50;31.50
78325;DHT22;67584;51.400;6.692;2023-07-08T08:48:01;31.80;30.50
78325;DHT22;67584;51.400;6.692;2023-07-08T08:53:01;32.20;30.70
78325;DHT22;67584;51.400;6.692;2023-07-08T08:55:28;32.30;30.70
78325;DHT22;67584;51.400;6.692;2023-07-08T09:00:56;32.30;29.90
78325;DHT22;67584;51.400;6.692;2023-07-08T09:06:04;32.80;30.50
78325;DHT22;67584;51.400;6.692;2023-07-08T09:08:35;32.90;29.80
78325;DHT22;67584;51.400;6.692;2023-07-08T09:11:19;32.70;30.10
78325;DHT22;67584;51.400;6.692;2023-07-08T09:13:49;32.70;30.40
78325;DHT22;67584;51.400;6.692;2023-07-08T09:16:25;32.80;30.30
78325;DHT22;67584;51.400;6.692;2023-07-08T09:24:58;33.10;30.10
78325;DHT22;67584;51.400;6.692;2023-07-08T09:27:24;32.80;30.70
78325;DHT22;67584;51.400;6.692;2023-07-08T09:29:50;32.90;30.80
78325;DHT22;67584;51.400;6.692;2023-07-08T09:32:21;33.00;30.90
78325;DHT22;67584;51.400;6.692;2023-07-08T09:34:53;33.10;30.50
78325;DHT22;67584;51.400;6.692;2023-07-08T09:37:33;33.30;30.40
78325;DHT22;67584;51.400;6.692;2023-07-08T09:40:03;33.90;29.70
78325;DHT22;67584;51.400;6.692;2023-07-08T09:42:31;34.10;28.80
78325;DHT22;67584;51.400;6.692;2023-07-08T09:44:59;34.40;29.30
78325;DHT22;67584;51.400;6.692;2023-07-08T09:47:33;34.60;27.20
78325;DHT22;67584;51.400;6.692;2023-07-08T09:50:00;34.60;28.40
78325;DHT22;67584;51.400;6.692;2023-07-08T09:52:28;34.50;27.90
78325;DHT22;67584;51.400;6.692;2023-07-08T09:54:55;34.60;28.30
78325;DHT22;67584;51.400;6.692;2023-07-08T09:59:49;34.40;28.50
78325;DHT22;67584;51.400;6.692;2023-07-08T10:02:33;34.30;28.60
78325;DHT22;67584;51.400;6.692;2023-07-08T10:05:17;34.20;28.50
78325;DHT22;67584;51.400;6.692;2023-07-08T10:07:45;34.10;28.70
78325;DHT22;67584;51.400;6.692;2023-07-08T10:10:17;34.40;28.10
78325;DHT22;67584;51.400;6.692;2023-07-08T10:12:55;34.70;27.30
78325;DHT22;67584;51.400;6.692;2023-07-08T10:15:27;34.50;28.10
78325;DHT22;67584;51.400;6.692;2023-07-08T10:17:54;35.40;27.60
78325;DHT22;67584;51.400;6.692;2023-07-08T10:20:21;36.30;26.10
78325;DHT22;67584;51.400;6.692;2023-07-08T10:23:00;37.50;25.20
78325;DHT22;67584;51.400;6.692;2023-07-08T10:25:44;38.30;24.30
78325;DHT22;67584;51.400;6.692;2023-07-08T10:36:50;39.10;23.40
78325;DHT22;67584;51.400;6.692;2023-07-08T10:48:27;39.80;22.50
78325;DHT22;67584;51.400;6.692;2023-07-08T10:51:13;39.20;22.70
78325;DHT22;67584;51.400;6.692;2023-07-08T10:56:23;39.80;23.70
78325;DHT22;67584;51.400;6.692;2023-07-08T11:07:30;41.80;21.40
78325;DHT22;67584;51.400;6.692;2023-07-08T11:09:59;41.60;21.90
78325;DHT22;67584;51.400;6.692;2023-07-08T11:13:27;42.00;22.00
78325;DHT22;67584;51.400;6.692;2023-07-08T11:15:29;41.60;21.10
78325;DHT22;67584;51.400;6.692;2023-07-08T11:18:25;41.60;22.00
78325;DHT22;67584;51.400;6.692;2023-07-08T11:21:11;41.80;20.50
78325;DHT22;67584;51.400;6.692;2023-07-08T11:23:46;42.00;21.90
78325;DHT22;67584;51.400;6.692;2023-07-08T11:26:30;42.60;21.20
78325;DHT22;67584;51.400;6.692;2023-07-08T11:28:59;42.60;21.00
78325;DHT22;67584;51.400;6.692;2023-07-08T11:31:28;43.30;20.60
78325;DHT22;67584;51.400;6.692;2023-07-08T11:33:57;43.10;20.10
78325;DHT22;67584;51.400;6.692;2023-07-08T11:36:24;42.40;20.70
78325;DHT22;67584;51.400;6.692;2023-07-08T11:38:53;42.00;21.10
78325;DHT22;67584;51.400;6.692;2023-07-08T11:41:25;41.60;21.50
78325;DHT22;67584;51.400;6.692;2023-07-08T11:43:59;41.70;22.10
78325;DHT22;67584;51.400;6.692;2023-07-08T11:46:32;42.70;21.40
78325;DHT22;67584;51.400;6.692;2023-07-08T11:49:03;43.50;20.70
78325;DHT22;67584;51.400;6.692;2023-07-08T11:51:32;43.70;20.30
78325;DHT22;67584;51.400;6.692;2023-07-08T11:54:10;43.80;20.30
78325;DHT22;67584;51.400;6.692;2023-07-08T11:56:58;44.10;19.90
78325;DHT22;67584;51.400;6.692;2023-07-08T11:59:26;44.30;20.30
78325;DHT22;67584;51.400;6.692;2023-07-08T12:12:28;44.50;19.30
78325;DHT22;67584;51.400;6.692;2023-07-08T12:15:15;44.90;18.40
78325;DHT22;67584;51.400;6.692;2023-07-08T12:17:42;45.20;19.50
78325;DHT22;67584;51.400;6.692;2023-07-08T12:20:34;46.00;18.20
78325;DHT22;67584;51.400;6.692;2023-07-08T12:23:00;46.40;18.10
78325;DHT22;67584;51.400;6.692;2023-07-08T12:25:32;46.40;17.70
78325;DHT22;67584;51.400;6.692;2023-07-08T12:28:01;46.40;18.40
78325;DHT22;67584;51.400;6.692;2023-07-08T12:30:29;46.80;17.70
78325;DHT22;67584;51.400;6.692;2023-07-08T12:32:55;46.50;18.20
78325;DHT22;67584;51.400;6.692;2023-07-08T12:35:29;46.40;18.30
78325;DHT22;67584;51.400;6.692;2023-07-08T12:38:12;46.40;18.30
78325;DHT22;67584;51.400;6.692;2023-07-08T12:40:40;45.90;18.20
78325;DHT22;67584;51.400;6.692;2023-07-08T12:43:09;46.60;18.00
78325;DHT22;67584;51.400;6.692;2023-07-08T12:45:36;47.70;17.30
78325;DHT22;67584;51.400;6.692;2023-07-08T12:48:02;47.90;17.40
78325;DHT22;67584;51.400;6.692;2023-07-08T12:50:28;48.00;17.10
78325;DHT22;67584;51.400;6.692;2023-07-08T12:52:53;48.40;16.80
78325;DHT22;67584;51.400;6.692;2023-07-08T12:55:19;47.90;17.20
78325;DHT22;67584;51.400;6.692;2023-07-08T12:57:48;48.10;17.00
78325;DHT22;67584;51.400;6.692;2023-07-08T13:00:25;48.90;16.20
78325;DHT22;67584;51.400;6.692;2023-07-08T13:03:03;49.10;16.50
78325;DHT22;67584;51.400;6.692;2023-07-08T13:05:31;49.00;16.60
78325;DHT22;67584;51.400;6.692;2023-07-08T13:07:57;48.40;17.10
78325;DHT22;67584;51.400;6.692;2023-07-08T13:10:25;48.40;16.90
78325;DHT22;67584;51.400;6.692;2023-07-08T13:12:59;49.50;16.30
78325;DHT22;67584;51.400;6.692;2023-07-08T13:15:29;49.80;16.30
78325;DHT22;67584;51.400;6.692;2023-07-08T13:17:56;50.40;16.10
78325;DHT22;67584;51.400;6.692;2023-07-08T13:20:22;49.30;15.70
78325;DHT22;67584;51.400;6.692;2023-07-08T13:23:01;50.10;16.10
78325;DHT22;67584;51.400;6.692;2023-07-08T13:25:29;50.50;15.30
78325;DHT22;67584;51.400;6.692;2023-07-08T13:28:19;50.10;15.60
78325;DHT22;67584;51.400;6.692;2023-07-08T13:30:58;49.70;15.70
78325;DHT22;67584;51.400;6.692;2023-07-08T13:33:32;49.80;15.70
78325;DHT22;67584;51.400;6.692;2023-07-08T13:36:02;50.50;16.60
78325;DHT22;67584;51.400;6.692;2023-07-08T13:38:35;50.90;15.90
78325;DHT22;67584;51.400;6.692;2023-07-08T13:41:05;49.70;15.90
78325;DHT22;67584;51.400;6.692;2023-07-08T13:43:37;50.60;16.20
78325;DHT22;67584;51.400;6.692;2023-07-08T13:46:04;51.10;15.80
78325;DHT22;67584;51.400;6.692;2023-07-08T13:51:18;51.80;15.40
78325;DHT22;67584;51.400;6.692;2023-07-08T13:53:45;51.90;15.10
78325;DHT22;67584;51.400;6.692;2023-07-08T13:56:15;51.80;15.20
78325;DHT22;67584;51.400;6.692;2023-07-08T13:58:45;51.40;15.50
78325;DHT22;67584;51.400;6.692;2023-07-08T14:01:20;49.80;15.70
78325;DHT22;67584;51.400;6.692;2023-07-08T14:03:46;49.80;15.80
78325;DHT22;67584;51.400;6.692;2023-07-08T14:06:17;49.70;16.50
78325;DHT22;67584;51.400;6.692;2023-07-08T14:08:43;50.70;15.90
78325;DHT22;67584;51.400;6.692;2023-07-08T14:11:09;51.10;15.70
78325;DHT22;67584;51.400;6.692;2023-07-08T14:13:34;52.30;15.10
78325;DHT22;67584;51.400;6.692;2023-07-08T14:16:01;52.00;15.10
78325;DHT22;67584;51.400;6.692;2023-07-08T14:18:28;47.50;17.50
78325;DHT22;67584;51.400;6.692;2023-07-08T14:20:53;47.60;17.80
78325;DHT22;67584;51.400;6.692;2023-07-08T14:23:19;47.80;17.50
78325;DHT22;67584;51.400;6.692;2023-07-08T14:25:46;49.50;17.10
78325;DHT22;67584;51.400;6.692;2023-07-08T14:28:12;51.30;16.10
78325;DHT22;67584;51.400;6.692;2023-07-08T14:30:44;52.10;15.30
78325;DHT22;67584;51.400;6.692;2023-07-08T14:33:11;51.80;15.20
78325;DHT22;67584;51.400;6.692;2023-07-08T14:35:37;50.90;15.30
78325;DHT22;67584;51.400;6.692;2023-07-08T14:38:11;51.90;14.80
78325;DHT22;67584;51.400;6.692;2023-07-08T14:40:39;51.30;15.10
78325;DHT22;67584;51.400;6.692;2023-07-08T14:43:10;50.70;15.40
78325;DHT22;67584;51.400;6.692;2023-07-08T14:45:46;50.80;15.40
78325;DHT22;67584;51.400;6.692;2023-07-08T14:48:13;52.10;15.00
78325;DHT22;67584;51.400;6.692;2023-07-08T14:50:39;52.60;14.60
78325;DHT22;67584;51.400;6.692;2023-07-08T14:53:05;52.70;14.40
78325;DHT22;67584;51.400;6.692;2023-07-08T14:55:31;51.50;14.90
78325;DHT22;67584;51.400;6.692;2023-07-08T14:57:57;51.90;15.00
78325;DHT22;67584;51.400;6.692;2023-07-08T15:00:23;52.30;14.70
78325;DHT22;67584;51.400;6.692;2023-07-08T15:02:51;49.80;15.30
78325;DHT22;67584;51.400;6.692;2023-07-08T15:05:22;48.40;16.00
78325;DHT22;67584;51.400;6.692;2023-07-08T15:07:56;48.20;16.60
78325;DHT22;67584;51.400;6.692;2023-07-08T15:10:29;49.50;17.10
78325;DHT22;67584;51.400;6.692;2023-07-08T15:12:56;50.60;15.80
78325;DHT22;67584;51.400;6.692;2023-07-08T15:15:27;50.10;15.80
78325;DHT22;67584;51.400;6.692;2023-07-08T15:17:54;50.60;15.80
78325;DHT22;67584;51.400;6.692;2023-07-08T15:20:20;50.80;15.70
78325;DHT22;67584;51.400;6.692;2023-07-08T15:22:47;49.60;16.20
78325;DHT22;67584;51.400;6.692;2023-07-08T15:25:14;47.70;16.60
78325;DHT22;67584;51.400;6.692;2023-07-08T15:27:42;47.00;17.70
78325;DHT22;67584;51.400;6.692;2023-07-08T15:30:19;46.10;17.80
78325;DHT22;67584;51.400;6.692;2023-07-08T15:32:45;44.80;18.70
78325;DHT22;67584;51.400;6.692;2023-07-08T15:35:13;43.90;19.40
78325;DHT22;67584;51.400;6.692;2023-07-08T15:37:38;43.00;19.80
78325;DHT22;67584;51.400;6.692;2023-07-08T15:40:05;42.30;20.10
78325;DHT22;67584;51.400;6.692;2023-07-08T15:42:35;42.20;20.40
78325;DHT22;67584;51.400;6.692;2023-07-08T15:45:24;42.30;20.50
78325;DHT22;67584;51.400;6.692;2023-07-08T15:47:47;42.40;21.20
78325;DHT22;67584;51.400;6.692;2023-07-08T15:50:14;42.60;20.80
78325;DHT22;67584;51.400;6.692;2023-07-08T15:52:41;42.30;21.60
78325;DHT22;67584;51.400;6.692;2023-07-08T15:55:11;41.50;23.20
78325;DHT22;67584;51.400;6.692;2023-07-08T15:57:43;41.10;24.30
78325;DHT22;67584;51.400;6.692;2023-07-08T16:00:17;40.50;22.70
78325;DHT22;67584;51.400;6.692;2023-07-08T16:02:50;41.40;23.00
78325;DHT22;67584;51.400;6.692;2023-07-08T16:05:18;41.70;23.50
78325;DHT22;67584;51.400;6.692;2023-07-08T16:07:46;42.00;22.30
78325;DHT22;67584;51.400;6.692;2023-07-08T16:10:12;43.70;20.70
78325;DHT22;67584;51.400;6.692;2023-07-08T16:12:38;44.70;20.20
78325;DHT22;67584;51.400;6.692;2023-07-08T16:15:04;45.40;19.40
78325;DHT22;67584;51.400;6.692;2023-07-08T16:17:33;47.10;19.00
78325;DHT22;67584;51.400;6.692;2023-07-08T16:20:00;47.20;18.30
78325;DHT22;67584;51.400;6.692;2023-07-08T16:22:25;47.20;18.50
78325;DHT22;67584;51.400;6.692;2023-07-08T16:24:51;48.60;17.70
78325;DHT22;67584;51.400;6.692;2023-07-08T16:27:17;48.60;17.10
78325;DHT22;67584;51.400;6.692;2023-07-08T16:29:42;47.60;17.50
78325;DHT22;67584;51.400;6.692;2023-07-08T16:32:11;46.70;17.70
78325;DHT22;67584;51.400;6.692;2023-07-08T16:34:38;46.40;17.90
78325;DHT22;67584;51.400;6.692;2023-07-08T16:37:04;45.90;18.60
78325;DHT22;67584;51.400;6.692;2023-07-08T16:39:29;45.80;19.30
78325;DHT22;67584;51.400;6.692;2023-07-08T16:41:55;47.00;19.10